Time;durP1;ratioP1;P1;durP2;ratioP2;P2;SDS_P1;SDS_P2;PMS_P1;PMS_P2;Temp;Humidity;BMP_temperature;BMP_pressure;BME280_temperature;BME280_humidity;BME280_pressure;Samples;Min_cycle;Max_cycle;Signal;HPM_P1;HPM_P2
2024/03/30 00:01:22;;;;;;;24.80;13.80;;;;;;;11.58;68.39;94611.81;4964197;28;20197;-68
2024/03/30 00:03:48;;;;;;;27.73;9.53;;;;;;;11.56;67.06;94600.56;4969212;28;20177;-68
2024/03/30 00:06:13;;;;;;;30.67;10.93;;;;;;;11.66;66.71;94602.34;4970325;28;20752;-67
2024/03/30 00:08:39;;;;;;;23.53;9.40;;;;;;;11.51;68.34;94602.72;4964864;28;20305;-70
2024/03/30 00:11:04;;;;;;;38.67;11.23;;;;;;;11.55;63.13;94601.50;4966425;28;20292;-70
2024/03/30 00:13:30;;;;;;;30.70;11.60;;;;;;;11.60;64.78;94597.59;4963032;28;20205;-71
2024/03/30 00:15:56;;;;;;;37.80;12.77;;;;;;;11.34;65.14;94599.59;4965319;28;20182;-73
2024/03/30 00:18:22;;;;;;;35.60;11.30;;;;;;;11.54;65.36;94598.06;4953050;28;20182;-70
2024/03/30 00:20:47;;;;;;;27.03;11.00;;;;;;;11.32;68.33;94600.66;4962321;28;20220;-69
2024/03/30 00:23:13;;;;;;;31.80;13.47;;;;;;;11.00;69.16;94611.75;4959904;28;20178;-71
2024/03/30 00:25:38;;;;;;;23.30;8.70;;;;;;;10.76;71.32;94615.25;4964356;28;20228;-70
2024/03/30 00:28:04;;;;;;;27.07;11.40;;;;;;;10.59;71.44;94613.84;4956816;28;20295;-67
2024/03/30 00:30:31;;;;;;;31.33;10.50;;;;;;;10.48;72.04;94611.16;4950738;28;20293;-67
2024/03/30 00:32:57;;;;;;;32.77;9.73;;;;;;;10.90;69.32;94608.16;4960439;28;20190;-70
2024/03/30 00:35:22;;;;;;;29.93;10.40;;;;;;;10.63;70.00;94604.00;4960128;28;20781;-70
2024/03/30 00:37:51;;;;;;;38.77;12.10;;;;;;;10.97;68.40;94609.38;4965831;28;21946;-69
2024/03/30 00:40:16;;;;;;;27.73;9.83;;;;;;;11.08;68.22;94593.66;4968121;28;21021;-70
2024/03/30 00:42:41;;;;;;;28.83;10.50;;;;;;;11.16;67.71;94601.78;4971861;28;20597;-68
2024/03/30 00:45:07;;;;;;;33.93;10.87;;;;;;;11.22;66.34;94601.34;4965711;28;20275;-71
2024/03/30 00:47:32;;;;;;;32.30;9.60;;;;;;;11.20;66.59;94607.66;4957164;28;20185;-69
2024/03/30 00:49:58;;;;;;;29.10;9.83;;;;;;;11.17;67.70;94598.22;4963021;28;20250;-69
2024/03/30 00:52:23;;;;;;;26.00;10.37;;;;;;;10.93;67.99;94618.41;4966677;28;20301;-70
2024/03/30 00:54:48;;;;;;;29.30;9.27;;;;;;;10.84;68.08;94613.84;4961405;28;20182;-70
2024/03/30 00:57:14;;;;;;;31.13;10.30;;;;;;;11.04;67.61;94618.47;4970268;28;20685;-69
2024/03/30 00:59:40;;;;;;;28.10;10.80;;;;;;;10.82;67.70;94613.97;4964793;28;20193;-71
2024/03/30 01:02:06;;;;;;;26.57;9.40;;;;;;;10.48;69.67;94613.78;4962995;28;20193;-69
2024/03/30 01:04:33;;;;;;;25.43;10.00;;;;;;;10.57;66.24;94612.28;4974958;28;20789;-69
2024/03/30 01:06:59;;;;;;;24.80;10.37;;;;;;;11.10;60.58;94606.66;4959337;28;20797;-69
2024/03/30 01:09:27;;;;;;;28.93;8.17;;;;;;;11.39;60.65;94600.06;4970727;28;20451;-70
2024/03/30 01:11:53;;;;;;;24.80;9.53;;;;;;;11.55;58.10;94597.13;4969517;28;20578;-68
2024/03/30 01:14:21;;;;;;;33.10;10.37;;;;;;;11.76;55.54;94596.41;4963731;28;20492;-69
2024/03/30 01:16:47;;;;;;;27.17;8.47;;;;;;;12.11;51.53;94584.97;4965392;28;20177;-69
2024/03/30 01:19:12;;;;;;;36.43;11.93;;;;;;;11.85;58.99;94603.56;4963198;28;20522;-69
2024/03/30 01:21:38;;;;;;;29.10;7.73;;;;;;;11.84;54.06;94592.22;4965071;28;20289;-70
2024/03/30 01:24:04;;;;;;;25.67;8.20;;;;;;;11.95;55.59;94601.94;4963131;28;20182;-69
2024/03/30 01:26:30;;;;;;;42.60;11.30;;;;;;;11.81;55.68;94596.88;4965065;28;20188;-68
2024/03/30 01:28:57;;;;;;;21.40;8.20;;;;;;;11.88;54.25;94592.84;4965344;28;20650;-67
2024/03/30 01:31:23;;;;;;;28.90;8.63;;;;;;;11.93;52.19;94595.97;4966101;28;20469;-68
2024/03/30 01:33:49;;;;;;;35.70;8.53;;;;;;;11.78;56.50;94602.38;4965348;28;20443;-67
2024/03/30 01:36:14;;;;;;;37.50;10.50;;;;;;;11.30;61.57;94599.94;4962295;28;20822;-70
2024/03/30 01:38:40;;;;;;;33.57;9.67;;;;;;;11.33;59.21;94597.06;4964308;28;20939;-70
2024/03/30 01:41:05;;;;;;;31.23;10.00;;;;;;;11.16;60.84;94596.53;4967261;28;20607;-68
2024/03/30 01:43:31;;;;;;;35.33;9.40;;;;;;;11.21;58.64;94601.44;4969957;28;20187;-68
2024/03/30 01:45:57;;;;;;;32.53;8.77;;;;;;;11.37;57.09;94599.34;4966298;28;20277;-70
2024/03/30 01:48:23;;;;;;;28.67;8.67;;;;;;;11.38;57.54;94601.00;4981806;28;20208;-71
2024/03/30 01:50:49;;;;;;;43.47;10.40;;;;;;;11.46;59.63;94600.44;4986150;28;20536;-71
2024/03/30 01:53:20;;;;;;;28.03;7.10;;;;;;;11.91;54.61;94597.88;4992907;28;20471;-71
2024/03/30 01:55:49;;;;;;;22.30;6.90;;;;;;;12.06;51.63;94596.66;4998772;28;21003;-68
2024/03/30 01:58:20;;;;;;;23.47;8.70;;;;;;;12.39;46.67;94594.94;4971297;28;20436;-69
2024/03/30 02:00:46;;;;;;;29.47;7.37;;;;;;;12.63;44.99;94596.56;4963058;28;20801;-69
2024/03/30 02:03:12;;;;;;;25.63;6.43;;;;;;;12.77;43.32;94593.66;4969901;28;20871;-68
2024/03/30 02:05:38;;;;;;;26.87;6.53;;;;;;;12.92;42.08;94597.69;4981940;28;20560;-67
2024/03/30 02:08:05;;;;;;;19.10;3.93;;;;;;;13.02;42.23;94587.22;4958142;28;20196;-70
2024/03/30 02:10:32;;;;;;;19.20;5.97;;;;;;;13.10;39.97;94586.59;4972438;28;20482;-70
2024/03/30 02:12:58;;;;;;;27.93;5.87;;;;;;;13.18;39.79;94584.16;4969393;28;20453;-69
2024/03/30 02:15:23;;;;;;;19.50;4.53;;;;;;;13.22;38.82;94588.19;4969554;28;20436;-69
2024/03/30 02:17:49;;;;;;;20.33;5.00;;;;;;;13.24;39.45;94574.91;4964361;28;20720;-72
2024/03/30 02:20:14;;;;;;;17.23;4.70;;;;;;;13.29;39.65;94583.28;4963888;28;20762;-69
2024/03/30 02:22:49;;;;;;;23.10;5.30;;;;;;;13.30;40.22;94588.44;4965083;28;20178;-68
2024/03/30 02:25:14;;;;;;;21.07;5.20;;;;;;;13.31;38.80;94574.28;4968298;28;20181;-69
2024/03/30 02:27:40;;;;;;;22.63;4.10;;;;;;;13.31;40.40;94573.47;4969606;28;20440;-68
2024/03/30 02:30:09;;;;;;;17.43;3.73;;;;;;;13.35;39.19;94569.59;4963190;28;20640;-71
2024/03/30 02:32:34;;;;;;;16.03;5.03;;;;;;;13.31;40.17;94569.00;4956626;28;20615;-70
2024/03/30 02:34:59;;;;;;;20.70;4.50;;;;;;;13.32;38.70;94567.22;4964069;28;20445;-68
2024/03/30 02:37:25;;;;;;;24.43;4.60;;;;;;;13.34;39.37;94568.75;4962510;28;20189;-68
2024/03/30 02:39:50;;;;;;;22.53;5.20;;;;;;;13.36;38.30;94573.06;4970358;28;20251;-68
2024/03/30 02:42:15;;;;;;;21.30;6.27;;;;;;;13.34;38.78;94568.75;4962747;28;20182;-67
2024/03/30 02:44:41;;;;;;;30.27;5.60;;;;;;;13.41;36.95;94571.72;4966873;28;20178;-69
2024/03/30 02:47:06;;;;;;;15.97;4.50;;;;;;;13.45;38.24;94575.75;4963218;28;20325;-67
2024/03/30 02:49:32;;;;;;;12.40;4.30;;;;;;;13.51;36.89;94561.22;4963450;28;20177;-68
2024/03/30 02:51:57;;;;;;;22.87;5.40;;;;;;;13.54;36.46;94566.25;4970154;28;20457;-68
2024/03/30 02:54:22;;;;;;;21.53;6.10;;;;;;;13.53;36.87;94559.28;4954927;28;20190;-69
2024/03/30 02:56:48;;;;;;;22.60;4.93;;;;;;;13.55;36.89;94560.81;4964068;28;20190;-69
2024/03/30 02:59:13;;;;;;;24.67;6.13;;;;;;;13.58;36.53;94566.81;4961604;28;20228;-70
2024/03/30 03:01:38;;;;;;;22.30;5.03;;;;;;;13.58;36.87;94561.53;4961078;28;20201;-70
2024/03/30 03:04:04;;;;;;;18.70;4.60;;;;;;;13.56;37.85;94566.97;4963918;28;20967;-69
2024/03/30 03:06:30;;;;;;;23.90;5.67;;;;;;;13.31;41.02;94571.66;4954439;28;20181;-68
2024/03/30 03:08:55;;;;;;;26.33;8.83;;;;;;;13.13;43.87;94570.53;4957108;28;20186;-68
2024/03/30 03:11:21;;;;;;;31.57;7.80;;;;;;;12.35;49.19;94569.84;4964433;28;20460;-70
2024/03/30 03:13:46;;;;;;;26.50;7.40;;;;;;;11.94;48.77;94560.84;4968258;28;20683;-67
2024/03/30 03:16:11;;;;;;;26.90;7.40;;;;;;;12.24;48.62;94559.38;4963963;28;20225;-68
2024/03/30 03:18:38;;;;;;;21.30;5.57;;;;;;;12.33;47.49;94561.28;4967532;28;20608;-71
2024/03/30 03:21:04;;;;;;;31.70;7.40;;;;;;;12.26;48.45;94550.41;4957168;28;20272;-69
2024/03/30 03:23:30;;;;;;;30.73;7.90;;;;;;;12.30;49.94;94545.72;4962533;28;20520;-69
2024/03/30 03:25:56;;;;;;;33.93;9.10;;;;;;;12.15;52.45;94541.69;4960651;28;20236;-69
2024/03/30 03:28:22;;;;;;;26.50;8.90;;;;;;;12.04;52.13;94545.16;4964418;28;20448;-68
2024/03/30 03:30:47;;;;;;;23.23;7.43;;;;;;;11.95;52.16;94541.50;4967206;28;20835;-69
2024/03/30 03:33:13;;;;;;;30.77;8.77;;;;;;;11.97;51.62;94546.59;4966452;28;20252;-67
2024/03/30 03:35:39;;;;;;;25.57;7.50;;;;;;;11.43;54.30;94549.00;4958615;28;20178;-69
2024/03/30 03:38:04;;;;;;;23.63;7.77;;;;;;;11.64;53.22;94558.78;4966869;28;20463;-68
2024/03/30 03:40:31;;;;;;;31.27;7.47;;;;;;;11.71;52.93;94557.34;4966466;28;20197;-69
2024/03/30 03:42:56;;;;;;;35.70;10.50;;;;;;;11.78;51.98;94555.91;4967251;28;20185;-68
2024/03/30 03:45:22;;;;;;;24.33;8.33;;;;;;;11.74;50.95;94562.38;4968945;28;20916;-68
2024/03/30 03:47:47;;;;;;;24.60;7.80;;;;;;;11.81;51.61;94549.56;4961735;28;20217;-68
2024/03/30 03:50:12;;;;;;;35.47;8.47;;;;;;;11.75;52.23;94552.69;4962035;28;20208;-67
2024/03/30 03:52:38;;;;;;;42.13;8.13;;;;;;;11.66;52.56;94557.69;4965948;28;20560;-70
2024/03/30 03:55:03;;;;;;;24.70;7.20;;;;;;;11.70;52.60;94554.84;4956220;28;20245;-69
2024/03/30 03:57:29;;;;;;;39.00;9.83;;;;;;;11.63;54.76;94573.72;4966976;28;20200;-69
2024/03/30 03:59:54;;;;;;;36.33;8.60;;;;;;;11.55;53.15;94562.97;4967336;28;20223;-69
2024/03/30 04:02:20;;;;;;;34.57;9.73;;;;;;;11.62;52.27;94560.69;4965511;28;20201;-69
2024/03/30 04:04:45;;;;;;;31.70;9.60;;;;;;;11.48;52.59;94545.16;4962479;28;20189;-70
2024/03/30 04:07:10;;;;;;;30.57;8.73;;;;;;;11.52;53.10;94547.41;4961020;28;20186;-69
2024/03/30 04:09:36;;;;;;;36.20;9.13;;;;;;;11.44;53.97;94549.81;4966169;28;20215;-70
2024/03/30 04:12:01;;;;;;;34.03;8.90;;;;;;;11.41;53.60;94543.00;4977003;28;20247;-68
2024/03/30 04:14:27;;;;;;;30.63;9.30;;;;;;;11.49;53.85;94538.97;4972232;28;20182;-70
2024/03/30 04:16:52;;;;;;;37.50;8.13;;;;;;;11.46;53.58;94537.41;4960263;28;20186;-68
2024/03/30 04:19:17;;;;;;;24.10;8.60;;;;;;;11.27;56.06;94532.72;4956851;28;20185;-69
2024/03/30 04:21:50;;;;;;;35.40;11.80;;;;;;;10.94;57.00;94520.38;4963455;28;20212;-69
2024/03/30 04:24:15;;;;;;;34.20;9.40;;;;;;;11.06;55.06;94511.56;4963292;28;20189;-69
2024/03/30 04:26:41;;;;;;;32.70;8.10;;;;;;;11.16;53.85;94509.91;4967316;28;20440;-69
2024/03/30 04:29:06;;;;;;;32.80;8.70;;;;;;;11.22;51.60;94501.56;4963717;28;20192;-69
2024/03/30 04:31:31;;;;;;;30.70;10.53;;;;;;;11.56;51.15;94492.88;4974121;28;20232;-68
2024/03/30 04:33:57;;;;;;;36.20;8.77;;;;;;;11.94;46.67;94487.22;4972013;28;20186;-68
2024/03/30 04:36:22;;;;;;;39.30;7.90;;;;;;;12.21;45.13;94473.69;4964058;28;20318;-70
2024/03/30 04:38:48;;;;;;;37.63;7.80;;;;;;;12.12;45.65;94479.69;4966298;28;20189;-69
2024/03/30 04:41:14;;;;;;;43.03;9.27;;;;;;;12.21;45.92;94497.34;4965473;28;20220;-67
2024/03/30 04:43:39;;;;;;;42.17;11.77;;;;;;;12.06;47.51;94520.41;4959639;28;20449;-69
2024/03/30 04:46:06;;;;;;;30.47;8.53;;;;;;;11.82;50.41;94531.06;4954750;28;20196;-69
2024/03/30 04:48:32;;;;;;;32.90;7.60;;;;;;;11.66;51.57;94536.69;4963288;28;20196;-68
2024/03/30 04:51:02;;;;;;;33.50;8.30;;;;;;;11.61;51.50;94527.50;4956151;28;20845;-67
2024/03/30 04:53:34;;;;;;;24.23;8.67;;;;;;;11.64;52.11;94530.69;4958668;28;20272;-68
2024/03/30 04:56:02;;;;;;;22.40;7.00;;;;;;;11.51;54.95;94519.50;4956636;28;20521;-69
2024/03/30 04:58:30;;;;;;;25.07;7.47;;;;;;;10.98;57.24;94524.44;4958006;28;20448;-69
2024/03/30 05:01:04;;;;;;;30.43;8.00;;;;;;;10.92;55.96;94523.13;4963909;28;20489;-68
2024/03/30 05:03:30;;;;;;;35.03;6.50;;;;;;;11.02;54.26;94516.22;4968478;28;20439;-69
2024/03/30 05:05:56;;;;;;;26.87;8.50;;;;;;;11.11;53.99;94506.81;4961367;28;20809;-68
2024/03/30 05:08:22;;;;;;;28.83;7.50;;;;;;;11.06;54.85;94516.00;4964444;28;20569;-67
2024/03/30 05:10:47;;;;;;;30.23;7.30;;;;;;;11.06;53.84;94506.31;4972195;28;20967;-70
2024/03/30 05:13:13;;;;;;;38.97;7.33;;;;;;;11.27;53.68;94524.00;4962856;28;20678;-69
2024/03/30 05:15:40;;;;;;;33.30;9.13;;;;;;;11.16;54.63;94536.16;4959578;28;20260;-68
2024/03/30 05:18:07;;;;;;;31.23;7.60;;;;;;;11.17;53.94;94545.72;4955731;28;20645;-68
2024/03/30 05:20:49;;;;;;;28.13;6.60;;;;;;;11.15;54.50;94545.00;4961456;28;20469;-69
2024/03/30 05:23:21;;;;;;;27.97;6.73;;;;;;;11.04;55.28;94550.22;4957959;28;20436;-68
2024/03/30 05:25:48;;;;;;;16.63;6.10;;;;;;;11.00;54.74;94538.28;4955455;28;21193;-67
2024/03/30 05:28:15;;;;;;;34.73;9.20;;;;;;;11.18;53.57;94530.81;4962807;28;20460;-69
2024/03/30 05:30:41;;;;;;;38.13;10.13;;;;;;;11.12;53.17;94516.34;4961672;28;20468;-68
2024/03/30 05:33:08;;;;;;;33.53;8.60;;;;;;;11.10;52.25;94505.16;4957104;28;21005;-68
2024/03/30 05:35:35;;;;;;;34.27;7.43;;;;;;;11.04;52.26;94502.97;4976906;28;20205;-68
2024/03/30 05:38:01;;;;;;;31.30;6.93;;;;;;;11.10;51.44;94501.66;4961204;28;20463;-69
2024/03/30 05:40:26;;;;;;;41.33;8.40;;;;;;;11.27;50.87;94497.75;4963034;28;20453;-69
2024/03/30 05:42:52;;;;;;;23.80;6.87;;;;;;;11.21;50.98;94506.94;4958645;28;20178;-68
2024/03/30 05:45:18;;;;;;;25.53;8.23;;;;;;;11.10;51.19;94499.03;4964799;28;20216;-68
2024/03/30 05:47:43;;;;;;;34.83;8.67;;;;;;;11.42;50.69;94496.56;4960808;28;20178;-69
2024/03/30 05:50:09;;;;;;;28.23;7.23;;;;;;;11.31;52.38;94494.75;4964171;28;20924;-69
2024/03/30 05:52:34;;;;;;;27.67;6.77;;;;;;;11.27;52.40;94497.75;4958512;28;20181;-68
2024/03/30 05:55:01;;;;;;;34.00;6.97;;;;;;;11.36;53.41;94494.41;4958676;28;20185;-69
2024/03/30 05:57:26;;;;;;;44.00;7.93;;;;;;;11.90;51.58;94504.19;4960936;28;20280;-67
2024/03/30 05:59:52;;;;;;;20.47;7.07;;;;;;;11.84;52.19;94504.66;4960107;28;20644;-69
2024/03/30 06:02:17;;;;;;;27.97;7.67;;;;;;;12.16;51.83;94498.66;4960398;28;20720;-69
2024/03/30 06:04:42;;;;;;;25.03;7.30;;;;;;;12.49;50.72;94495.06;4964305;28;20209;-70
2024/03/30 06:07:10;;;;;;;34.17;7.63;;;;;;;12.88;48.67;94498.84;4957988;28;20217;-68
2024/03/30 06:09:36;;;;;;;24.20;6.50;;;;;;;13.44;47.75;94491.56;4958264;28;21999;-68
2024/03/30 06:12:03;;;;;;;29.33;8.00;;;;;;;13.91;46.39;94483.97;4962807;28;20486;-68
2024/03/30 06:14:29;;;;;;;26.20;9.30;;;;;;;14.49;44.03;94481.44;4958888;28;20285;-69
2024/03/30 06:16:57;;;;;;;31.30;7.77;;;;;;;14.92;44.04;94482.84;4963213;28;20816;-69
2024/03/30 06:19:22;;;;;;;23.87;9.07;;;;;;;15.36;43.21;94480.53;4955696;28;20445;-69
2024/03/30 06:21:48;;;;;;;22.03;8.33;;;;;;;15.30;43.39;94469.69;4957935;28;20517;-68
2024/03/30 06:24:13;;;;;;;52.03;11.43;;;;;;;15.32;42.79;94470.41;4956043;28;20189;-68
2024/03/30 06:26:39;;;;;;;29.50;7.37;;;;;;;15.57;43.00;94477.69;4958224;28;20269;-69
2024/03/30 06:29:04;;;;;;;25.40;7.00;;;;;;;15.60;42.76;94471.28;4961252;28;20216;-69
2024/03/30 06:31:29;;;;;;;23.97;7.50;;;;;;;15.90;42.50;94477.28;4950686;28;20885;-69
2024/03/30 06:33:55;;;;;;;36.20;9.03;;;;;;;16.26;42.28;94486.97;4958451;28;20186;-69
2024/03/30 06:36:20;;;;;;;18.57;7.40;;;;;;;17.11;46.02;94478.69;4955275;28;20184;-69
2024/03/30 06:38:52;;;;;;;21.00;7.30;;;;;;;16.62;41.14;94489.66;4963994;28;20204;-69
2024/03/30 06:44:15;;;;;;;27.37;8.43;;;;;;;16.66;40.85;94480.44;4969670;28;20468;-69
2024/03/30 06:46:42;;;;;;;29.40;7.53;;;;;;;16.53;40.70;94485.25;4974908;28;20566;-69
2024/03/30 06:49:07;;;;;;;27.70;8.87;;;;;;;16.71;40.22;94472.03;4969737;28;20185;-70
2024/03/30 06:51:33;;;;;;;37.27;8.60;;;;;;;16.91;38.52;94476.22;4970769;28;20479;-70
2024/03/30 06:53:58;;;;;;;31.90;8.73;;;;;;;16.41;38.81;94470.59;4971133;28;20193;-69
2024/03/30 06:56:23;;;;;;;31.13;9.97;;;;;;;17.03;38.40;94468.88;4972986;28;20943;-68
2024/03/30 06:58:49;;;;;;;47.20;9.97;;;;;;;16.82;37.94;94470.97;4964508;28;20197;-68
2024/03/30 07:01:15;;;;;;;28.47;7.90;;;;;;;17.32;37.72;94475.69;4961778;28;20859;-69
2024/03/30 07:03:40;;;;;;;44.87;10.20;;;;;;;16.66;38.28;94467.19;4969038;28;20257;-68
2024/03/30 07:06:06;;;;;;;44.47;8.83;;;;;;;16.88;38.68;94465.09;4969860;28;20173;-68
2024/03/30 07:08:32;;;;;;;41.63;8.87;;;;;;;17.19;37.99;94467.31;4968464;28;20224;-70
2024/03/30 07:10:57;;;;;;;33.93;9.03;;;;;;;16.84;38.85;94467.22;4970360;28;20345;-67
2024/03/30 07:13:23;;;;;;;37.77;9.47;;;;;;;16.83;38.81;94468.19;4970019;28;20279;-68
2024/03/30 07:15:49;;;;;;;37.23;10.33;;;;;;;17.21;38.53;94466.16;4970460;28;20181;-69
2024/03/30 07:18:14;;;;;;;39.20;9.93;;;;;;;17.22;38.57;94457.25;4970786;28;20182;-67
2024/03/30 07:20:40;;;;;;;39.43;9.87;;;;;;;16.70;39.45;94457.97;4969345;28;20201;-69
2024/03/30 07:23:05;;;;;;;32.80;10.27;;;;;;;16.72;39.71;94457.78;4970037;28;20184;-68
2024/03/30 07:25:31;;;;;;;37.27;9.70;;;;;;;16.63;40.26;94454.25;4970233;28;20704;-70
2024/03/30 07:27:56;;;;;;;32.43;8.60;;;;;;;17.08;39.73;94453.31;4970586;28;20696;-69
2024/03/30 07:30:21;;;;;;;43.73;10.47;;;;;;;16.96;39.30;94441.31;4973005;28;20240;-69
2024/03/30 07:32:47;;;;;;;45.33;10.70;;;;;;;17.02;38.78;94447.81;4971880;28;20170;-70
2024/03/30 07:35:12;;;;;;;40.10;9.33;;;;;;;16.94;38.39;94440.63;4980358;28;20181;-69
2024/03/30 07:37:38;;;;;;;37.27;9.70;;;;;;;17.11;38.79;94436.28;4982756;28;20891;-69
2024/03/30 07:40:04;;;;;;;47.07;12.87;;;;;;;17.31;38.15;94436.91;4978246;28;20229;-69
2024/03/30 07:42:31;;;;;;;51.80;12.00;;;;;;;17.39;38.54;94436.97;4974846;28;20433;-69
2024/03/30 07:44:56;;;;;;;48.60;12.17;;;;;;;17.77;37.49;94434.81;4960644;28;20827;-72
2024/03/30 07:47:22;;;;;;;50.80;11.50;;;;;;;17.65;37.11;94428.97;4965164;28;20444;-70
2024/03/30 07:49:47;;;;;;;43.40;10.13;;;;;;;17.94;36.68;94428.59;4970114;28;20283;-71
2024/03/30 07:52:13;;;;;;;40.43;9.40;;;;;;;18.22;36.58;94438.97;4970472;28;20212;-69
2024/03/30 07:54:38;;;;;;;42.23;10.47;;;;;;;18.27;36.65;94428.69;4968214;28;20185;-69
2024/03/30 07:57:04;;;;;;;50.13;11.30;;;;;;;18.55;36.28;94433.75;4971907;28;20185;-69
2024/03/30 07:59:29;;;;;;;52.43;13.43;;;;;;;18.88;35.95;94426.63;4980148;28;20191;-71
2024/03/30 08:01:55;;;;;;;46.47;13.13;;;;;;;19.05;36.43;94427.47;4971548;28;20550;-70
2024/03/30 08:04:21;;;;;;;40.00;10.57;;;;;;;19.18;36.06;94425.13;4970514;28;20244;-69
2024/03/30 08:06:48;;;;;;;35.17;8.50;;;;;;;18.74;35.74;94432.59;4965316;28;20272;-70
2024/03/30 08:09:16;;;;;;;39.23;9.63;;;;;;;18.59;36.14;94432.38;4954748;28;20468;-71
2024/03/30 08:11:43;;;;;;;43.57;9.77;;;;;;;18.23;37.22;94437.16;4961140;28;20564;-69
2024/03/30 08:14:09;;;;;;;42.67;11.90;;;;;;;17.57;38.11;94426.25;4963925;28;20468;-67
2024/03/30 08:16:34;;;;;;;57.03;13.50;;;;;;;17.17;37.93;94430.34;4968858;28;20519;-67
2024/03/30 08:19:03;;;;;;;49.27;11.07;;;;;;;17.95;36.80;94430.28;4968914;28;20197;-69
2024/03/30 08:21:29;;;;;;;46.23;11.03;;;;;;;18.12;35.51;94427.69;4969420;28;20665;-70
2024/03/30 08:23:55;;;;;;;49.90;10.67;;;;;;;18.08;35.31;94437.78;4969167;28;20484;-69
2024/03/30 08:26:20;;;;;;;39.27;10.53;;;;;;;18.28;34.52;94426.88;4968688;28;20189;-69
2024/03/30 08:28:46;;;;;;;46.17;9.97;;;;;;;18.15;34.59;94430.84;4968621;28;20409;-69
2024/03/30 08:31:12;;;;;;;41.73;11.50;;;;;;;18.51;34.70;94425.25;4968289;28;20369;-69
2024/03/30 08:33:37;;;;;;;52.13;12.03;;;;;;;18.96;32.35;94423.16;4968516;28;20637;-71
2024/03/30 08:36:03;;;;;;;53.43;10.73;;;;;;;18.77;33.15;94419.00;4968158;28;20551;-68
2024/03/30 08:38:28;;;;;;;42.57;8.90;;;;;;;18.80;33.32;94423.97;4968310;28;20189;-70
2024/03/30 08:40:54;;;;;;;30.87;10.13;;;;;;;18.81;33.27;94434.44;4968711;28;20234;-69
2024/03/30 08:43:19;;;;;;;30.77;10.10;;;;;;;19.17;32.45;94430.59;4967921;28;20244;-69
2024/03/30 08:45:45;;;;;;;38.87;10.03;;;;;;;19.15;32.14;94421.97;4968162;28;20293;-69
2024/03/30 08:48:14;;;;;;;33.13;10.03;;;;;;;19.38;32.30;94412.28;4967847;28;20170;-70
2024/03/30 08:50:40;;;;;;;42.43;10.00;;;;;;;19.13;32.37;94414.16;4968154;28;20205;-69
2024/03/30 08:53:10;;;;;;;32.27;8.20;;;;;;;19.42;31.93;94410.94;4966136;28;20488;-69
2024/03/30 08:55:36;;;;;;;36.63;9.67;;;;;;;19.77;31.73;94410.69;4968173;28;20459;-69
2024/03/30 08:58:02;;;;;;;38.23;10.00;;;;;;;20.18;31.07;94403.34;4968030;28;20440;-69
2024/03/30 09:00:28;;;;;;;41.27;9.17;;;;;;;20.38;30.56;94395.72;4967477;28;20437;-70
2024/03/30 09:02:54;;;;;;;35.63;9.43;;;;;;;20.54;29.89;94402.78;4967030;28;20862;-69
2024/03/30 09:05:21;;;;;;;37.77;7.90;;;;;;;20.04;29.90;94402.25;4968508;28;20178;-70
2024/03/30 09:07:46;;;;;;;42.70;10.30;;;;;;;20.23;30.25;94397.50;4967720;28;20421;-68
2024/03/30 09:10:12;;;;;;;46.43;10.67;;;;;;;20.13;30.57;94394.25;4968402;28;21017;-69
2024/03/30 09:12:37;;;;;;;40.80;11.07;;;;;;;20.47;30.09;94393.84;4967699;28;20184;-69
2024/03/30 09:15:03;;;;;;;36.37;9.47;;;;;;;20.05;30.60;94395.09;4968016;28;20177;-68
2024/03/30 09:17:28;;;;;;;30.67;7.37;;;;;;;19.86;30.90;94393.69;4967793;28;20195;-68
2024/03/30 09:19:54;;;;;;;32.80;7.23;;;;;;;19.86;31.15;94393.69;4967433;28;20208;-69
2024/03/30 09:22:19;;;;;;;40.17;11.63;;;;;;;19.94;31.09;94391.00;4967500;28;20189;-69
2024/03/30 09:24:44;;;;;;;41.87;11.40;;;;;;;19.93;32.03;94393.81;4967204;28;20166;-68
2024/03/30 09:27:10;;;;;;;37.33;10.83;;;;;;;20.22;30.73;94388.69;4967185;28;20260;-68
2024/03/30 09:29:35;;;;;;;35.97;8.60;;;;;;;20.09;31.19;94391.91;4967273;28;20178;-69
2024/03/30 09:32:01;;;;;;;28.53;7.03;;;;;;;20.04;31.16;94398.78;4967868;28;20201;-69
2024/03/30 09:34:26;;;;;;;38.30;8.77;;;;;;;19.64;31.69;94396.06;4967282;28;20174;-68
2024/03/30 09:36:51;;;;;;;28.67;6.93;;;;;;;19.55;31.83;94401.59;4967361;28;20223;-69
2024/03/30 09:39:17;;;;;;;38.07;8.87;;;;;;;19.40;32.14;94398.81;4966885;28;20184;-68
2024/03/30 09:41:49;;;;;;;29.93;7.83;;;;;;;19.17;31.77;94396.88;4967122;28;20280;-70
2024/03/30 09:44:15;;;;;;;25.07;7.00;;;;;;;19.01;32.50;94403.03;4966749;28;20169;-70
2024/03/30 09:46:43;;;;;;;34.57;8.27;;;;;;;19.12;32.32;94398.38;4967306;28;20439;-68
2024/03/30 09:49:09;;;;;;;31.97;6.57;;;;;;;19.21;31.62;94394.72;4966902;28;20220;-67
2024/03/30 09:51:36;;;;;;;26.27;6.63;;;;;;;19.13;31.47;94389.38;4967024;28;20538;-69
2024/03/30 09:54:02;;;;;;;22.30;6.73;;;;;;;19.21;31.87;94392.88;4966768;28;20421;-69
2024/03/30 09:56:30;;;;;;;34.63;8.00;;;;;;;19.25;31.78;94385.38;4966644;28;20445;-70
2024/03/30 09:58:59;;;;;;;27.00;7.00;;;;;;;19.18;31.66;94385.25;4981477;28;20978;-69
2024/03/30 10:01:24;;;;;;;25.57;7.03;;;;;;;19.11;31.37;94388.72;4966548;28;20432;-69
2024/03/30 10:03:50;;;;;;;35.70;8.17;;;;;;;19.07;31.38;94387.44;4967143;28;20413;-69
2024/03/30 10:06:27;;;;;;;29.40;6.30;;;;;;;19.08;31.64;94381.91;4966669;28;20201;-69
2024/03/30 10:08:58;;;;;;;30.37;7.63;;;;;;;18.99;30.97;94381.13;4965204;28;20200;-70
2024/03/30 10:11:26;;;;;;;26.73;8.23;;;;;;;18.88;30.61;94376.16;4965218;28;20484;-68
2024/03/30 10:14:09;;;;;;;30.83;5.80;;;;;;;18.96;30.39;94375.31;4967885;28;20463;-69
2024/03/30 10:16:35;;;;;;;27.80;7.47;;;;;;;18.87;30.62;94376.31;4970529;28;20785;-69
2024/03/30 10:19:00;;;;;;;27.80;6.47;;;;;;;18.96;30.34;94370.81;4970585;28;20424;-69
2024/03/30 10:21:26;;;;;;;28.30;6.80;;;;;;;19.00;30.08;94376.63;4970478;28;20196;-68
2024/03/30 10:23:52;;;;;;;28.13;8.20;;;;;;;18.93;30.40;94370.34;4970073;28;20169;-69
2024/03/30 10:26:18;;;;;;;29.97;6.57;;;;;;;19.00;31.06;94366.81;4970491;28;20432;-68
2024/03/30 10:28:44;;;;;;;37.27;6.10;;;;;;;18.98;30.68;94373.31;4971423;28;20282;-69
2024/03/30 10:31:10;;;;;;;26.47;9.77;;;;;;;19.12;30.72;94369.97;4970897;28;20727;-68
2024/03/30 10:33:35;;;;;;;35.00;6.53;;;;;;;19.18;31.16;94373.75;4970510;28;20413;-70
2024/03/30 10:36:02;;;;;;;34.23;6.47;;;;;;;19.19;31.00;94368.28;4971239;28;20677;-70
2024/03/30 10:38:28;;;;;;;26.27;6.80;;;;;;;19.34;30.67;94370.22;4970974;28;20189;-70
2024/03/30 10:40:56;;;;;;;35.07;8.27;;;;;;;19.46;30.24;94371.53;4970339;28;20519;-71
2024/03/30 10:43:23;;;;;;;34.43;6.33;;;;;;;19.54;29.94;94363.53;4969841;28;20785;-69
2024/03/30 10:45:49;;;;;;;33.20;6.77;;;;;;;19.67;29.99;94371.78;4971992;28;20490;-69
2024/03/30 10:48:15;;;;;;;29.97;6.80;;;;;;;19.74;28.89;94377.25;4970355;28;20432;-69
2024/03/30 10:50:41;;;;;;;19.13;6.00;;;;;;;19.93;28.81;94367.22;4967865;28;20981;-68
2024/03/30 10:53:06;;;;;;;28.47;6.03;;;;;;;20.05;28.21;94376.44;4955077;28;20461;-68
2024/03/30 10:55:39;;;;;;;41.90;8.10;;;;;;;20.01;27.95;94369.84;4968170;28;20213;-68
2024/03/30 10:58:05;;;;;;;45.00;8.93;;;;;;;20.09;28.48;94367.94;4968172;28;20204;-70
2024/03/30 11:00:31;;;;;;;39.37;7.27;;;;;;;19.91;28.46;94369.22;4968981;28;20939;-70
2024/03/30 11:02:58;;;;;;;29.30;6.23;;;;;;;19.87;28.40;94366.09;4963005;28;20185;-70
2024/03/30 11:05:28;;;;;;;29.90;5.70;;;;;;;19.81;28.75;94369.41;4979319;28;20980;-69
2024/03/30 11:07:55;;;;;;;34.67;5.90;;;;;;;19.87;27.00;94363.41;4970730;28;20429;-70
2024/03/30 11:10:21;;;;;;;28.17;6.57;;;;;;;19.74;27.58;94366.63;4968123;28;20455;-71
2024/03/30 11:12:46;;;;;;;28.20;7.60;;;;;;;19.70;28.48;94362.66;4970232;28;20555;-69
2024/03/30 11:15:12;;;;;;;33.10;7.87;;;;;;;19.58;27.97;94370.16;4967295;28;20564;-69
2024/03/30 11:18:00;;;;;;;29.63;6.23;;;;;;;19.48;27.88;94363.38;4971905;28;20174;-70
2024/03/30 11:20:34;;;;;;;20.33;6.67;;;;;;;19.54;27.97;94357.38;4968252;28;20608;-70
2024/03/30 11:23:05;;;;;;;30.20;7.90;;;;;;;19.48;27.95;94358.88;4969955;28;20978;-70